Time;durP1;ratioP1;P1;durP2;ratioP2;P2;SDS_P1;SDS_P2;PMS_P1;PMS_P2;Temp;Humidity;BMP_temperature;BMP_pressure;BME280_temperature;BME280_humidity;BME280_pressure;Samples;Min_cycle;Max_cycle;Signal;HPM_P1;HPM_P2
2024/03/10 00:01:07;;;;;;;46.50;29.80;;;;;;;6.60;73.44;98231.25;226668;1273;22526;-80
2024/03/10 00:06:09;;;;;;;47.90;31.80;;;;;;;6.61;74.07;98228.65;226692;1271;22537;-81
2024/03/10 00:11:17;;;;;;;49.60;31.70;;;;;;;6.62;73.93;98224.77;226668;1273;22527;-80
2024/03/10 00:16:20;;;;;;;49.00;31.70;;;;;;;6.57;73.93;98228.00;226688;1270;22531;-81
2024/03/10 00:21:21;;;;;;;44.30;29.00;;;;;;;6.56;74.25;98227.34;226664;1270;22534;-80
2024/03/10 00:26:24;;;;;;;48.60;30.90;;;;;;;6.56;74.31;98224.91;226766;1272;22543;-80
2024/03/10 00:31:26;;;;;;;48.20;32.80;;;;;;;6.53;74.26;98223.17;226732;1273;22530;-81
2024/03/10 00:36:28;;;;;;;46.50;29.20;;;;;;;6.48;74.39;98220.82;226773;1272;22602;-81
2024/03/10 00:41:31;;;;;;;48.10;29.80;;;;;;;6.42;74.28;98214.34;226748;1271;22637;-80
2024/03/10 00:46:33;;;;;;;46.90;28.50;;;;;;;6.35;74.85;98201.48;226653;1272;22528;-80
2024/03/10 00:51:35;;;;;;;41.10;25.70;;;;;;;6.36;74.43;98196.29;226535;1273;223422;-80
2024/03/10 00:56:37;;;;;;;47.40;28.50;;;;;;;6.35;74.83;98196.55;226653;1272;23324;-80
2024/03/10 01:01:40;;;;;;;45.80;29.70;;;;;;;6.34;74.61;98189.02;226653;1271;22521;-80
2024/03/10 01:06:42;;;;;;;47.80;30.20;;;;;;;6.30;74.70;98179.27;226732;1273;22680;-81
2024/03/10 01:11:47;;;;;;;44.70;28.10;;;;;;;6.30;74.69;98181.40;226695;1272;22616;-80
2024/03/10 01:16:50;;;;;;;44.50;28.00;;;;;;;6.30;75.03;98177.20;226640;1269;24244;-80
2024/03/10 01:21:52;;;;;;;46.20;29.10;;;;;;;6.36;75.06;98171.63;226810;1273;22564;-81
2024/03/10 01:26:55;;;;;;;39.20;25.20;;;;;;;6.40;75.08;98162.42;226800;1271;22572;-80
2024/03/10 01:31:57;;;;;;;43.70;28.30;;;;;;;6.43;75.16;98157.64;226799;1273;22546;-80
2024/03/10 01:37:00;;;;;;;42.10;27.60;;;;;;;6.46;74.92;98151.59;226663;1250;22525;-79
2024/03/10 01:42:05;;;;;;;40.50;25.10;;;;;;;6.43;74.99;98145.09;226699;1272;22526;-80
2024/03/10 01:47:08;;;;;;;38.50;25.40;;;;;;;6.43;75.09;98141.05;226765;1271;22536;-79
2024/03/10 01:52:11;;;;;;;38.10;23.30;;;;;;;6.47;74.98;98134.30;226733;1271;23742;-80
2024/03/10 01:57:14;;;;;;;33.20;22.40;;;;;;;6.57;74.83;98124.73;226821;1272;22534;-80
2024/03/10 02:02:18;;;;;;;34.10;22.60;;;;;;;6.63;74.27;98123.04;226697;1273;22558;-80
2024/03/10 02:07:20;;;;;;;33.90;21.90;;;;;;;6.63;74.47;98116.30;226815;1272;22537;-80
2024/03/10 02:12:23;;;;;;;31.30;20.90;;;;;;;6.62;74.08;98109.30;226658;1273;22551;-81
2024/03/10 02:17:26;;;;;;;34.10;21.90;;;;;;;6.61;74.09;98112.38;226693;1273;22542;-80
2024/03/10 02:22:28;;;;;;;27.80;19.50;;;;;;;6.53;73.64;98109.30;226709;1271;22525;-80
2024/03/10 02:27:33;;;;;;;28.90;18.70;;;;;;;6.43;74.00;98101.70;226701;1273;22547;-81
2024/03/10 02:48:39;;;;;;;26.90;18.50;;;;;;;6.06;74.22;98082.41;226654;1270;22540;-81
2024/03/10 02:53:41;;;;;;;26.90;17.50;;;;;;;5.98;74.31;98081.89;226813;1272;22522;-80
2024/03/10 02:58:44;;;;;;;28.20;17.40;;;;;;;5.95;74.42;98079.08;226655;1273;22537;-80
2024/03/10 03:03:46;;;;;;;26.60;17.30;;;;;;;5.90;74.27;98080.09;226714;1273;22569;-80
2024/03/10 03:08:49;;;;;;;25.90;18.20;;;;;;;5.83;74.14;98070.89;226652;1273;22527;-80
2024/03/10 03:13:51;;;;;;;27.40;18.70;;;;;;;5.73;74.25;98071.14;226802;1272;22559;-80
2024/03/10 03:18:53;;;;;;;32.00;20.80;;;;;;;5.56;74.29;98071.02;226728;1273;25417;-80
2024/03/10 03:23:56;;;;;;;26.60;18.90;;;;;;;5.37;74.63;98066.03;226788;1272;24239;-79
2024/03/10 03:28:58;;;;;;;26.60;17.20;;;;;;;5.24;74.82;98074.63;226712;1272;22521;-80
2024/03/10 03:34:00;;;;;;;29.10;19.60;;;;;;;5.16;75.26;98072.37;226757;1271;24717;-80
2024/03/10 03:39:05;;;;;;;32.50;21.50;;;;;;;5.03;75.03;98075.75;226639;1270;22534;-80
2024/03/10 03:44:08;;;;;;;33.70;21.30;;;;;;;4.85;75.24;98075.36;226759;1273;22531;-80
2024/03/10 03:49:10;;;;;;;32.40;21.50;;;;;;;4.73;75.57;98077.77;226729;1272;22546;-79
2024/03/10 03:54:12;;;;;;;31.40;20.70;;;;;;;4.65;75.98;98069.70;226789;1272;22531;-79
2024/03/10 03:59:14;;;;;;;31.20;20.10;;;;;;;4.61;76.12;98061.70;226741;1272;22539;-80
2024/03/10 04:04:16;;;;;;;28.30;18.80;;;;;;;4.65;76.65;98057.58;226814;1273;22533;-80
2024/03/10 04:09:19;;;;;;;31.60;20.10;;;;;;;4.65;76.73;98057.14;226774;1273;22538;-80
2024/03/10 04:14:21;;;;;;;30.80;20.60;;;;;;;4.64;76.53;98056.55;226697;1273;22544;-80
2024/03/10 04:19:24;;;;;;;32.50;22.40;;;;;;;4.62;76.88;98055.38;226725;1273;25966;-80
2024/03/10 04:24:26;;;;;;;35.20;22.10;;;;;;;4.60;76.99;98050.64;226843;1272;22534;-79
2024/03/10 04:29:28;;;;;;;30.70;21.30;;;;;;;4.58;77.23;98046.39;226753;1272;22556;-79
2024/03/10 04:34:32;;;;;;;35.30;23.50;;;;;;;4.59;76.99;98047.16;226666;1273;22528;-79
2024/03/10 04:39:35;;;;;;;36.00;22.60;;;;;;;4.55;77.31;98041.98;226622;1270;22536;-80
2024/03/10 04:44:37;;;;;;;34.10;23.20;;;;;;;4.56;77.41;98040.87;226637;1273;22533;-80
2024/03/10 04:49:39;;;;;;;34.80;23.80;;;;;;;4.55;77.52;98037.80;226795;1272;22541;-80
2024/03/10 04:54:42;;;;;;;33.70;21.40;;;;;;;4.54;77.39;98032.89;226803;1273;23263;-80
2024/03/10 04:59:45;;;;;;;34.30;22.10;;;;;;;4.52;77.33;98028.28;226811;1257;22549;-80
2024/03/10 05:04:48;;;;;;;31.60;21.60;;;;;;;4.51;77.30;98025.21;226723;1273;22831;-80
2024/03/10 05:09:51;;;;;;;35.90;22.60;;;;;;;4.57;77.65;98022.42;226823;1271;24301;-80
2024/03/10 05:14:52;;;;;;;34.50;22.60;;;;;;;4.66;77.48;98028.66;226866;1273;22526;-80
2024/03/10 05:19:55;;;;;;;30.10;19.70;;;;;;;4.71;77.37;98024.10;226728;1273;22540;-80
2024/03/10 05:24:57;;;;;;;31.90;21.30;;;;;;;4.76;77.14;98023.84;226751;1273;22529;-80
2024/03/10 05:29:59;;;;;;;29.50;19.90;;;;;;;4.81;76.98;98025.48;226746;1273;22549;-80
2024/03/10 05:35:05;;;;;;;29.00;19.40;;;;;;;4.89;77.08;98027.63;226857;1272;22534;-80
2024/03/10 05:40:09;;;;;;;29.70;19.00;;;;;;;4.98;77.15;98025.58;226741;1273;25154;-80
2024/03/10 05:45:11;;;;;;;25.20;17.40;;;;;;;5.07;76.84;98021.45;226796;1272;22568;-81
2024/03/10 05:50:13;;;;;;;28.50;18.10;;;;;;;5.15;76.96;98023.60;226747;1251;22537;-80
2024/03/10 05:55:16;;;;;;;28.60;18.60;;;;;;;5.26;76.76;98019.45;226913;1273;25250;-80
2024/03/10 06:00:18;;;;;;;25.00;17.20;;;;;;;5.37;76.57;98020.13;226770;1273;22531;-80
2024/03/10 06:05:21;;;;;;;26.00;17.00;;;;;;;5.48;76.35;98017.56;226752;1273;22686;-80
2024/03/10 06:10:23;;;;;;;28.00;17.80;;;;;;;5.58;76.21;98018.34;226764;1270;22915;-80
2024/03/10 06:15:25;;;;;;;25.80;17.40;;;;;;;5.77;76.41;98020.06;226800;1270;22540;-80
2024/03/10 06:25:48;;;;;;;25.40;16.80;;;;;;;6.15;76.09;98018.65;226731;1272;22537;-81
2024/03/10 06:30:50;;;;;;;25.50;17.50;;;;;;;6.29;75.23;98015.71;226748;1270;22579;-80
2024/03/10 06:35:53;;;;;;;24.90;17.30;;;;;;;6.40;75.34;98013.61;226751;1267;22576;-81
2024/03/10 06:40:55;;;;;;;24.70;16.40;;;;;;;6.49;74.53;98008.00;226825;1273;22603;-81
2024/03/10 06:45:58;;;;;;;24.40;17.10;;;;;;;6.60;74.57;98001.14;226760;1270;22553;-80
2024/03/10 06:51:01;;;;;;;24.80;17.10;;;;;;;6.79;74.24;98004.70;226787;1271;24408;-80
2024/03/10 06:56:04;;;;;;;22.10;15.50;;;;;;;7.03;74.50;97998.27;226834;1273;22592;-80
2024/03/10 07:01:06;;;;;;;19.70;14.90;;;;;;;7.28;74.01;97996.48;226846;1273;22628;-79
2024/03/10 07:06:08;;;;;;;22.60;16.20;;;;;;;7.50;73.73;97995.09;226892;1273;25284;-80
2024/03/10 07:11:10;;;;;;;23.80;17.10;;;;;;;7.64;72.82;97986.77;226853;1267;22541;-80
2024/03/10 07:16:13;;;;;;;22.40;15.60;;;;;;;7.77;72.97;97981.30;226842;1273;22535;-80
2024/03/10 07:21:18;;;;;;;18.20;13.20;;;;;;;7.98;72.24;97980.94;226899;1270;22565;-80
2024/03/10 07:26:20;;;;;;;18.60;13.10;;;;;;;8.21;72.28;97976.20;226888;1270;22576;-80
2024/03/10 07:31:22;;;;;;;16.30;12.30;;;;;;;8.32;72.18;97974.92;226974;1273;22642;-80
2024/03/10 07:36:26;;;;;;;18.70;12.80;;;;;;;8.53;71.52;97968.13;226863;1273;22544;-81
2024/03/10 07:41:28;;;;;;;15.60;11.80;;;;;;;8.93;71.40;97960.52;226786;1273;22650;-81
2024/03/10 07:46:30;;;;;;;13.60;10.90;;;;;;;9.33;70.85;97951.24;226859;1273;22549;-80
2024/03/10 07:51:33;;;;;;;13.50;10.70;;;;;;;9.54;69.94;97947.87;226851;1270;25115;-80
2024/03/10 07:56:35;;;;;;;13.20;9.60;;;;;;;9.70;69.64;97951.38;226850;1270;23318;-80
2024/03/10 08:01:37;;;;;;;15.00;10.70;;;;;;;9.92;68.80;97947.39;226834;1273;22541;-80
2024/03/10 08:06:39;;;;;;;13.50;11.40;;;;;;;9.98;68.74;97941.85;226884;1272;22522;-80
2024/03/10 08:11:42;;;;;;;14.00;10.40;;;;;;;9.98;68.22;97939.02;226976;1272;22539;-80
2024/03/10 08:16:46;;;;;;;13.10;9.80;;;;;;;10.00;68.18;97935.61;226762;1273;22552;-80
2024/03/10 08:21:48;;;;;;;10.50;9.20;;;;;;;10.11;68.04;97932.98;226966;1261;22554;-79
2024/03/10 08:26:50;;;;;;;12.20;9.40;;;;;;;10.22;67.89;97930.77;226848;1273;22555;-81
2024/03/10 08:31:55;;;;;;;13.00;9.60;;;;;;;10.30;67.87;97925.14;226858;1273;24965;-81
2024/03/10 08:36:57;;;;;;;14.40;9.50;;;;;;;10.31;67.65;97921.85;226546;1273;22545;-81
2024/03/10 08:41:59;;;;;;;12.80;9.80;;;;;;;10.34;67.84;97920.98;227020;1271;22535;-80
2024/03/10 08:47:02;;;;;;;12.80;9.90;;;;;;;10.46;67.68;97919.33;226949;1271;22551;-80
2024/03/10 08:52:07;;;;;;;13.10;10.10;;;;;;;10.71;67.72;97909.39;226906;1273;22561;-81
2024/03/10 08:57:09;;;;;;;11.50;9.20;;;;;;;11.12;67.41;97910.25;226992;1273;22535;-81
2024/03/10 09:02:11;;;;;;;11.40;9.10;;;;;;;11.48;66.67;97902.92;226961;1271;22560;-81
2024/03/10 09:07:14;;;;;;;14.00;9.60;;;;;;;11.74;66.37;97909.85;226749;1273;22547;-81
2024/03/10 09:12:17;;;;;;;12.60;9.40;;;;;;;12.06;66.01;97903.55;226965;1271;22527;-80
2024/03/10 09:17:20;;;;;;;9.50;8.10;;;;;;;12.40;65.54;97911.63;226810;1269;22545;-80
2024/03/10 09:22:22;;;;;;;8.90;7.50;;;;;;;12.58;64.87;97909.42;226962;1273;22574;-80
2024/03/10 09:27:24;;;;;;;10.50;8.40;;;;;;;12.77;64.50;97900.90;226864;1273;25421;-81
2024/03/10 09:32:27;;;;;;;10.00;7.40;;;;;;;12.96;64.11;97898.25;227025;1273;22569;-82
2024/03/10 09:37:30;;;;;;;10.50;8.00;;;;;;;13.01;62.80;97900.02;226931;1269;22550;-81
2024/03/10 09:42:32;;;;;;;11.00;8.00;;;;;;;13.02;62.50;97892.17;226970;1273;25274;-80
2024/03/10 09:47:34;;;;;;;9.50;7.40;;;;;;;12.97;61.73;97880.48;226798;1250;22823;-80
2024/03/10 09:52:38;;;;;;;12.60;8.80;;;;;;;13.02;62.21;97875.40;226951;1261;25349;-81
2024/03/10 09:57:40;;;;;;;9.40;7.20;;;;;;;13.11;61.32;97870.67;227030;1273;22992;-80
2024/03/10 10:02:44;;;;;;;9.40;8.30;;;;;;;13.21;61.48;97863.05;226945;1273;23742;-81
2024/03/10 10:07:46;;;;;;;9.50;7.10;;;;;;;13.34;61.53;97860.63;226948;1269;22535;-81
2024/03/10 10:12:49;;;;;;;10.50;8.40;;;;;;;13.44;60.93;97858.32;226914;1272;22986;-81
2024/03/10 10:18:00;;;;;;;10.00;7.80;;;;;;;13.48;60.86;97855.48;227034;1272;22527;-80
2024/03/10 10:23:06;;;;;;;9.60;8.00;;;;;;;13.72;61.64;97854.79;226898;1266;22588;-81
2024/03/10 10:28:13;;;;;;;9.70;7.50;;;;;;;14.04;60.72;97851.19;226905;1273;22537;-81
2024/03/10 10:33:15;;;;;;;8.60;7.20;;;;;;;14.25;60.72;97843.55;226755;1273;22525;-81
2024/03/10 10:38:20;;;;;;;8.80;7.50;;;;;;;14.49;60.46;97835.45;226944;1273;22585;-81
2024/03/10 10:43:22;;;;;;;8.10;6.80;;;;;;;14.67;60.58;97839.42;226717;1273;22559;-81
2024/03/10 10:48:25;;;;;;;7.80;6.50;;;;;;;14.86;60.22;97842.86;226942;1267;22553;-80
2024/03/10 10:53:29;;;;;;;9.30;6.80;;;;;;;14.98;60.03;97838.82;226944;1271;22458;-81
2024/03/10 10:58:34;;;;;;;8.90;6.50;;;;;;;15.09;60.10;97833.33;226787;1273;22553;-81
2024/03/10 11:03:39;;;;;;;7.70;6.00;;;;;;;15.23;60.00;97828.73;226757;1270;22549;-81
2024/03/10 11:08:45;;;;;;;6.60;5.90;;;;;;;15.41;59.65;97826.46;226855;1267;22541;-81
2024/03/10 11:13:50;;;;;;;7.30;6.30;;;;;;;15.52;59.00;97826.68;226726;1273;22537;-81
2024/03/10 11:19:13;;;;;;;9.80;7.40;;;;;;;15.54;58.76;97831.16;226859;1271;24314;-81
2024/03/10 11:24:18;;;;;;;8.70;7.80;;;;;;;15.53;58.60;97835.44;226914;1269;22999;-81
2024/03/10 11:29:26;;;;;;;10.20;8.40;;;;;;;15.47;58.78;97831.98;226827;1273;22533;-82
2024/03/10 11:34:30;;;;;;;10.50;7.80;;;;;;;15.42;58.51;97821.80;226982;1269;22541;-81
2024/03/10 11:39:33;;;;;;;11.80;9.10;;;;;;;15.36;58.64;97816.27;226929;1271;22921;-81
2024/03/10 11:44:36;;;;;;;9.60;8.00;;;;;;;15.32;58.34;97807.03;226781;1273;22541;-81
2024/03/10 11:49:39;;;;;;;10.80;8.60;;;;;;;15.27;58.30;97804.20;226883;1270;22570;-82
2024/03/10 11:54:41;;;;;;;9.90;8.20;;;;;;;15.26;59.03;97796.15;226942;1273;22558;-82
2024/03/10 11:59:44;;;;;;;9.90;6.90;;;;;;;15.22;58.51;97796.63;226811;1273;22559;-81
2024/03/10 12:04:46;;;;;;;10.40;8.30;;;;;;;15.17;58.87;97796.69;226903;1267;22530;-81
2024/03/10 12:09:53;;;;;;;10.10;7.80;;;;;;;15.19;59.03;97797.89;226866;1270;23718;-80
2024/03/10 12:14:56;;;;;;;10.50;8.50;;;;;;;15.22;59.31;97793.41;227008;1268;22919;-81
2024/03/10 12:20:00;;;;;;;8.30;6.60;;;;;;;15.22;59.28;97792.09;226918;1265;22545;-82
2024/03/10 12:25:09;;;;;;;8.50;7.30;;;;;;;15.16;59.29;97792.36;226972;1271;22564;-81
2024/03/10 12:30:12;;;;;;;8.50;6.80;;;;;;;15.12;59.61;97795.19;227017;1269;22568;-81
2024/03/10 12:35:14;;;;;;;8.00;6.40;;;;;;;15.08;59.61;97794.00;226896;1273;23177;-80
2024/03/10 12:40:16;;;;;;;8.10;7.00;;;;;;;15.04;59.63;97785.09;226853;1272;22556;-81
2024/03/10 12:45:18;;;;;;;8.50;7.00;;;;;;;15.01;59.92;97785.09;226738;1270;22532;-80
2024/03/10 12:50:20;;;;;;;7.50;6.70;;;;;;;14.94;59.94;97776.58;226846;1266;23257;-81
2024/03/10 12:55:23;;;;;;;8.80;6.90;;;;;;;14.89;59.96;97771.30;226568;1273;165712;-81
2024/03/10 13:00:28;;;;;;;8.30;6.00;;;;;;;14.91;60.39;97770.29;226729;1273;22532;-82
2024/03/10 13:05:32;;;;;;;7.60;6.40;;;;;;;14.91;60.26;97771.62;226888;1268;22529;-81
2024/03/10 13:10:34;;;;;;;7.30;6.40;;;;;;;14.88;60.22;97767.05;226873;1273;22551;-81
2024/03/10 13:15:37;;;;;;;7.20;6.20;;;;;;;14.86;60.24;97763.13;226934;1268;22562;-82
2024/03/10 13:20:40;;;;;;;9.10;6.70;;;;;;;14.84;60.30;97760.96;226859;1272;22572;-80
2024/03/10 13:25:43;;;;;;;7.30;6.50;;;;;;;14.84;60.48;97756.77;226799;1273;22553;-81
2024/03/10 13:30:45;;;;;;;7.90;6.70;;;;;;;14.82;60.60;97752.39;226850;1268;24268;-81
2024/03/10 13:35:47;;;;;;;7.50;6.40;;;;;;;14.80;60.67;97749.54;226825;1273;22545;-81
2024/03/10 13:40:50;;;;;;;6.90;6.00;;;;;;;14.80;60.66;97745.44;226893;1273;22571;-81
2024/03/10 13:45:52;;;;;;;9.30;6.80;;;;;;;14.80;60.86;97745.86;226843;1273;24379;-81
2024/03/10 13:50:54;;;;;;;7.20;6.50;;;;;;;14.85;61.05;97743.97;226912;1273;22708;-81
2024/03/10 13:55:56;;;;;;;7.30;6.40;;;;;;;14.92;61.00;97742.06;226875;1273;24255;-81
2024/03/10 14:00:59;;;;;;;8.20;6.70;;;;;;;14.93;60.64;97738.84;226874;1270;22534;-81
2024/03/10 14:06:01;;;;;;;9.00;6.30;;;;;;;14.89;60.91;97735.77;226693;1273;22543;-80
2024/03/10 14:11:03;;;;;;;8.30;6.10;;;;;;;14.83;61.00;97732.13;226819;1259;25501;-81
2024/03/10 14:16:06;;;;;;;8.00;6.50;;;;;;;14.76;61.19;97731.59;226693;1273;25245;-81
2024/03/10 14:21:09;;;;;;;8.00;6.70;;;;;;;14.69;61.36;97731.21;226685;1271;22531;-82
2024/03/10 14:26:12;;;;;;;8.10;6.10;;;;;;;14.64;61.61;97728.89;226843;1266;22534;-81
2024/03/10 14:31:14;;;;;;;7.10;5.70;;;;;;;14.58;61.68;97730.36;226930;1273;22534;-81
2024/03/10 14:36:16;;;;;;;6.90;5.40;;;;;;;14.52;62.02;97729.95;226929;1271;22537;-80
2024/03/10 14:41:18;;;;;;;6.30;4.80;;;;;;;14.51;62.02;97729.45;226790;1272;22537;-81
2024/03/10 14:46:21;;;;;;;6.90;5.50;;;;;;;14.49;61.93;97723.05;226824;1273;22526;-80
2024/03/10 14:51:25;;;;;;;7.70;5.30;;;;;;;14.48;62.17;97717.80;226875;1271;24878;-80
2024/03/10 14:56:28;;;;;;;8.20;5.00;;;;;;;14.46;62.20;97720.33;226681;1273;22546;-80
2024/03/10 15:01:30;;;;;;;5.60;4.40;;;;;;;14.44;62.40;97717.27;226890;1273;22632;-81
2024/03/10 15:06:35;;;;;;;8.20;5.00;;;;;;;14.38;62.13;97712.19;226947;1271;22569;-80
2024/03/10 15:11:36;;;;;;;6.60;4.70;;;;;;;14.31;62.21;97710.66;226815;1273;22529;-80
2024/03/10 15:16:41;;;;;;;8.50;4.70;;;;;;;14.21;62.42;97706.49;226840;1273;22538;-80
2024/03/10 15:21:44;;;;;;;7.10;4.30;;;;;;;14.12;62.22;97705.63;226897;1250;22525;-80
2024/03/10 15:26:48;;;;;;;5.00;3.60;;;;;;;14.01;62.48;97700.84;226871;1273;22658;-80
2024/03/10 15:31:51;;;;;;;7.40;5.40;;;;;;;13.89;62.80;97701.41;226789;1273;24385;-81
2024/03/10 15:36:53;;;;;;;6.10;4.30;;;;;;;13.75;63.03;97695.19;226901;1268;22526;-80
2024/03/10 15:41:56;;;;;;;8.40;5.70;;;;;;;13.58;63.56;97696.22;226750;1270;22545;-81
2024/03/10 15:47:01;;;;;;;11.20;8.00;;;;;;;13.42;63.89;97697.95;226864;1273;22552;-81
2024/03/10 15:52:04;;;;;;;9.40;6.00;;;;;;;13.28;64.28;97706.61;226768;1271;25336;-81
2024/03/10 15:57:06;;;;;;;5.70;4.70;;;;;;;13.20;64.55;97709.87;226767;1271;22544;-81
2024/03/10 16:02:08;;;;;;;6.50;3.80;;;;;;;13.14;64.28;97707.91;226850;1271;22546;-80
2024/03/10 16:07:10;;;;;;;6.90;4.40;;;;;;;13.08;64.26;97709.83;226917;1273;22570;-81
2024/03/10 16:12:15;;;;;;;6.30;4.80;;;;;;;13.03;64.36;97717.32;226771;1271;22526;-81
2024/03/10 16:17:18;;;;;;;6.10;4.70;;;;;;;12.96;64.62;97717.66;226761;1250;22530;-80
2024/03/10 16:22:23;;;;;;;7.70;5.20;;;;;;;12.85;64.88;97725.73;226659;1273;22517;-80
2024/03/10 16:27:25;;;;;;;6.20;4.30;;;;;;;12.70;65.11;97726.58;226759;1267;22535;-80
2024/03/10 16:32:27;;;;;;;7.30;4.20;;;;;;;12.56;65.41;97726.33;226559;1273;22606;-81
2024/03/10 16:37:30;;;;;;;6.80;4.30;;;;;;;12.46;65.69;97723.05;226824;1271;22534;-81
2024/03/10 16:42:32;;;;;;;6.60;4.60;;;;;;;12.33;65.83;97726.53;226814;1270;22530;-81
2024/03/10 16:47:35;;;;;;;8.30;5.40;;;;;;;12.24;66.13;97728.20;226713;1271;22515;-81
2024/03/10 16:52:38;;;;;;;5.30;4.60;;;;;;;12.17;66.34;97732.45;226747;1271;22541;-80
2024/03/10 16:57:40;;;;;;;7.60;5.40;;;;;;;12.11;66.38;97732.98;226759;1267;22530;-80
2024/03/10 17:02:43;;;;;;;8.80;5.30;;;;;;;12.07;66.55;97735.42;226756;1268;22864;-80
2024/03/10 17:07:47;;;;;;;7.90;4.80;;;;;;;12.06;66.54;97731.24;226762;1273;22540;-80
2024/03/10 17:12:49;;;;;;;6.70;4.50;;;;;;;12.02;66.54;97725.48;226688;1267;22540;-80
2024/03/10 17:17:51;;;;;;;10.20;6.20;;;;;;;11.97;66.69;97720.69;226704;1271;22630;-80
2024/03/10 17:22:53;;;;;;;9.30;5.90;;;;;;;11.91;66.79;97718.02;226675;1271;25328;-80
2024/03/10 17:27:57;;;;;;;8.80;6.00;;;;;;;11.82;66.86;97716.32;226730;1270;23025;-80
2024/03/10 17:33:01;;;;;;;9.70;6.80;;;;;;;11.72;67.26;97718.16;226879;1270;22544;-81
2024/03/10 17:38:04;;;;;;;9.10;6.90;;;;;;;11.65;67.57;97714.36;226808;1269;22530;-80
2024/03/10 17:43:08;;;;;;;8.60;6.90;;;;;;;11.61;67.68;97713.55;226787;1268;22531;-82
2024/03/10 17:48:13;;;;;;;10.00;7.60;;;;;;;11.56;67.89;97710.88;226708;1273;22529;-81
2024/03/10 17:53:15;;;;;;;10.30;7.90;;;;;;;11.52;67.98;97711.02;226737;1272;22534;-81
2024/03/10 17:58:17;;;;;;;10.10;8.20;;;;;;;11.47;68.19;97702.91;226779;1273;22553;-80
2024/03/10 18:03:19;;;;;;;9.80;7.50;;;;;;;11.43;68.31;97704.23;226692;1271;22998;-80
2024/03/10 18:08:21;;;;;;;11.10;8.60;;;;;;;11.36;68.43;97703.08;226669;1271;22681;-83
2024/03/10 18:13:23;;;;;;;10.90;8.60;;;;;;;11.27;68.69;97693.61;226688;1272;25220;-81
2024/03/10 18:18:27;;;;;;;12.20;9.30;;;;;;;11.20;68.91;97704.50;226641;1271;22825;-80
2024/03/10 18:23:30;;;;;;;12.30;9.00;;;;;;;11.13;69.17;97710.83;226852;1250;24228;-81
2024/03/10 18:28:35;;;;;;;12.00;9.10;;;;;;;11.06;69.22;97718.70;226694;1271;22531;-79
2024/03/10 18:33:39;;;;;;;13.20;9.90;;;;;;;10.98;69.63;97716.66;226746;1269;22526;-80
2024/03/10 18:38:43;;;;;;;11.90;9.00;;;;;;;10.92;69.80;97714.63;226822;1269;22546;-80
2024/03/10 18:43:46;;;;;;;10.90;8.80;;;;;;;10.90;69.99;97716.56;226789;1273;22524;-81
2024/03/10 18:48:48;;;;;;;9.80;7.90;;;;;;;10.84;70.00;97721.36;226663;1273;22528;-80
2024/03/10 18:53:51;;;;;;;12.40;8.70;;;;;;;10.78;70.27;97728.29;226664;1263;22600;-80
2024/03/10 18:58:55;;;;;;;12.20;9.00;;;;;;;10.71;70.21;97731.13;226798;1270;23019;-80
2024/03/10 19:03:57;;;;;;;13.40;8.90;;;;;;;10.65;70.40;97734.36;226653;1269;22540;-80
2024/03/10 19:09:00;;;;;;;11.00;8.30;;;;;;;10.57;70.71;97730.94;226765;1273;22541;-79
2024/03/10 19:14:03;;;;;;;11.60;8.90;;;;;;;10.51;70.88;97730.95;226833;1270;22534;-80
2024/03/10 19:19:07;;;;;;;12.30;9.30;;;;;;;10.45;71.20;97735.13;226748;1271;24259;-80
2024/03/10 19:24:09;;;;;;;11.70;7.70;;;;;;;10.39;71.31;97735.91;226729;1270;22516;-80
2024/03/10 19:29:11;;;;;;;14.30;9.80;;;;;;;10.31;71.69;97729.41;226841;1273;22576;-81
2024/03/10 19:34:13;;;;;;;12.20;9.60;;;;;;;10.22;72.13;97728.27;226794;1250;22541;-81
2024/03/10 19:39:16;;;;;;;11.50;9.40;;;;;;;10.13;72.38;97729.52;226797;1272;22542;-81
2024/03/10 19:44:18;;;;;;;13.70;10.60;;;;;;;10.05;72.76;97735.73;226689;1272;22537;-80
2024/03/10 19:49:20;;;;;;;13.20;10.30;;;;;;;9.99;72.77;97730.02;226687;1273;22653;-81
2024/03/10 19:54:22;;;;;;;13.00;8.80;;;;;;;9.91;73.31;97722.20;226706;1273;22534;-81
2024/03/10 19:59:24;;;;;;;14.00;9.50;;;;;;;9.84;73.74;97720.75;226856;1272;22538;-81
2024/03/10 20:04:28;;;;;;;12.10;9.50;;;;;;;9.79;74.27;97720.53;226776;1271;23630;-80
2024/03/10 20:09:30;;;;;;;13.10;9.50;;;;;;;9.71;74.50;97729.53;226703;1272;22548;-80
2024/03/10 20:14:34;;;;;;;14.30;10.10;;;;;;;9.64;74.62;97734.02;226756;1273;24771;-81
2024/03/10 20:19:37;;;;;;;14.40;11.00;;;;;;;9.57;75.21;97738.83;226716;1272;23089;-81
2024/03/10 20:24:39;;;;;;;12.80;10.60;;;;;;;9.52;75.21;97736.80;226655;1272;22528;-80
2024/03/10 20:29:41;;;;;;;13.60;11.00;;;;;;;9.47;75.40;97730.98;226719;1273;22695;-81
2024/03/10 20:34:43;;;;;;;14.90;11.40;;;;;;;9.43;75.89;97730.42;226688;1273;25939;-81
2024/03/10 20:39:46;;;;;;;16.20;11.70;;;;;;;9.37;76.34;97717.98;226764;1252;24255;-81
2024/03/10 20:44:48;;;;;;;14.50;11.40;;;;;;;9.32;76.51;97721.52;226841;1272;22537;-81
2024/03/10 20:49:51;;;;;;;15.10;12.10;;;;;;;9.26;76.48;97724.20;226822;1273;22578;-81
2024/03/10 20:54:53;;;;;;;15.60;12.60;;;;;;;9.19;76.81;97731.11;226763;1273;22591;-81
2024/03/10 20:59:56;;;;;;;15.70;12.40;;;;;;;9.14;77.15;97729.05;226838;1273;22556;-81
2024/03/10 21:04:59;;;;;;;16.20;12.40;;;;;;;9.09;77.07;97731.44;226800;1272;22565;-81
2024/03/10 21:10:05;;;;;;;15.30;12.40;;;;;;;9.05;77.35;97731.70;226844;1273;22731;-81
2024/03/10 21:15:10;;;;;;;18.80;13.00;;;;;;;9.01;77.57;97728.30;226682;1272;24220;-81
2024/03/10 21:20:13;;;;;;;16.50;12.50;;;;;;;9.00;77.66;97724.20;226760;1273;22533;-81
2024/03/10 21:25:16;;;;;;;17.30;13.40;;;;;;;8.97;78.09;97721.33;226730;1250;24222;-81
2024/03/10 21:30:18;;;;;;;17.80;12.80;;;;;;;8.93;77.79;97716.48;226669;1269;22520;-81
2024/03/10 21:35:22;;;;;;;14.00;11.60;;;;;;;8.91;78.03;97711.55;226844;1269;25404;-81
2024/03/10 21:40:25;;;;;;;15.10;11.20;;;;;;;8.90;78.27;97706.52;226765;1273;22583;-81
2024/03/10 21:45:28;;;;;;;15.00;11.80;;;;;;;8.90;78.48;97706.10;226764;1273;22541;-81
2024/03/10 21:50:31;;;;;;;16.00;12.10;;;;;;;8.90;78.71;97701.88;226667;1273;25915;-80
2024/03/10 21:55:33;;;;;;;14.10;11.00;;;;;;;8.91;78.84;97699.77;226823;1272;23472;-80
2024/03/10 22:00:36;;;;;;;15.50;11.30;;;;;;;8.94;79.03;97696.39;226699;1272;22540;-80
2024/03/10 22:05:38;;;;;;;15.80;10.50;;;;;;;8.96;78.83;97694.70;226710;1271;22535;-80
2024/03/10 22:10:42;;;;;;;16.50;11.50;;;;;;;8.97;78.84;97694.98;226806;1260;22538;-80
2024/03/10 22:15:44;;;;;;;13.70;11.10;;;;;;;8.95;79.09;97689.79;226810;1273;24095;-80
2024/03/10 22:20:47;;;;;;;14.00;10.30;;;;;;;8.96;79.22;97690.77;226678;1273;22738;-80
2024/03/10 22:25:50;;;;;;;12.20;9.70;;;;;;;8.96;79.26;97694.16;226765;1271;22530;-81
2024/03/10 22:30:52;;;;;;;15.00;10.90;;;;;;;8.96;79.60;97690.72;226658;1270;23437;-81
2024/03/10 22:35:54;;;;;;;14.90;10.60;;;;;;;8.94;79.41;97688.45;226645;1272;23012;-80
2024/03/10 22:40:56;;;;;;;16.60;11.90;;;;;;;8.94;79.60;97688.94;226836;1273;22601;-81
2024/03/10 22:45:58;;;;;;;14.70;11.30;;;;;;;8.90;79.72;97678.70;226650;1272;25278;-80
2024/03/10 22:51:00;;;;;;;14.80;11.00;;;;;;;8.88;79.74;97670.92;226823;1273;22533;-81
2024/03/10 22:56:03;;;;;;;15.00;10.80;;;;;;;8.86;79.94;97673.55;226761;1273;22561;-81
2024/03/10 23:01:10;;;;;;;13.60;11.40;;;;;;;8.85;80.46;97669.67;226753;1273;22565;-80
2024/03/10 23:06:15;;;;;;;16.40;12.60;;;;;;;8.84;80.18;97672.59;226706;1267;22691;-80
2024/03/10 23:11:20;;;;;;;14.70;11.90;;;;;;;8.84;80.12;97677.20;226688;1272;22543;-81
2024/03/10 23:16:23;;;;;;;13.50;10.50;;;;;;;8.83;80.61;97682.23;226785;1251;25092;-80
2024/03/10 23:21:25;;;;;;;16.80;11.70;;;;;;;8.82;80.56;97678.83;226812;1273;22545;-80
2024/03/10 23:26:27;;;;;;;15.10;12.40;;;;;;;8.80;80.83;97678.54;226779;1273;22570;-80
2024/03/10 23:31:29;;;;;;;15.80;12.30;;;;;;;8.77;80.77;97673.66;226708;1269;22525;-80
2024/03/10 23:36:31;;;;;;;16.40;13.20;;;;;;;8.75;80.93;97672.17;226831;1273;25252;-80